Terminal Aerodrome Forecast
Issued by NWS

Home | Current Version | Previous Version | Text Only | Print | Product List | Glossary On
Versions: 1 2 3 4 5 6 7 8 9 10 11 12 13 14
000
FTUS44 KLZK 281100
TAFBPK
TAF
KBPK 281134Z 2812/2912 12008KT P6SM SKC
     FM281800 16011G21KT P6SM SCT250 WS020/20035KT
     FM290300 18008KT P6SM SCT250 WS020/21050KT
     FM290900 25006KT P6SM SCT250 WS020/28040KT=

USA.gov is the U.S. government's official web portal to all federal, state and local government web resources and services.